sensor_id;sensor_type;location;lat;lon;timestamp;P1;durP1;ratioP1;P2;durP2;ratioP2
11588;SDS011;5850;51.360;12.362;2022-10-31T00:01:33;11.73;;;8.10;;
11588;SDS011;5850;51.360;12.362;2022-10-31T00:04:04;11.77;;;7.50;;
11588;SDS011;5850;51.360;12.362;2022-10-31T00:06:33;10.57;;;8.30;;
11588;SDS011;5850;51.360;12.362;2022-10-31T00:09:03;11.97;;;7.80;;
11588;SDS011;5850;51.360;12.362;2022-10-31T00:11:32;13.27;;;7.53;;
11588;SDS011;5850;51.360;12.362;2022-10-31T00:14:00;13.47;;;7.67;;
11588;SDS011;5850;51.360;12.362;2022-10-31T00:16:29;11.33;;;7.40;;
11588;SDS011;5850;51.360;12.362;2022-10-31T00:18:58;11.80;;;7.80;;
11588;SDS011;5850;51.360;12.362;2022-10-31T00:21:31;10.07;;;6.90;;
11588;SDS011;5850;51.360;12.362;2022-10-31T00:24:01;11.10;;;6.97;;
11588;SDS011;5850;51.360;12.362;2022-10-31T00:26:30;10.63;;;7.53;;
11588;SDS011;5850;51.360;12.362;2022-10-31T00:28:59;8.03;;;6.17;;
11588;SDS011;5850;51.360;12.362;2022-10-31T00:31:27;12.37;;;6.87;;
11588;SDS011;5850;51.360;12.362;2022-10-31T00:33:57;10.70;;;6.73;;
11588;SDS011;5850;51.360;12.362;2022-10-31T00:36:25;12.90;;;7.30;;
11588;SDS011;5850;51.360;12.362;2022-10-31T00:38:53;11.57;;;7.43;;
11588;SDS011;5850;51.360;12.362;2022-10-31T00:41:22;11.63;;;6.80;;
11588;SDS011;5850;51.360;12.362;2022-10-31T00:43:50;13.53;;;6.73;;
11588;SDS011;5850;51.360;12.362;2022-10-31T00:46:19;15.23;;;7.33;;
11588;SDS011;5850;51.360;12.362;2022-10-31T00:48:47;9.53;;;6.30;;
11588;SDS011;5850;51.360;12.362;2022-10-31T00:51:15;10.17;;;7.03;;
11588;SDS011;5850;51.360;12.362;2022-10-31T00:53:44;11.40;;;6.47;;
11588;SDS011;5850;51.360;12.362;2022-10-31T00:56:12;11.90;;;6.70;;
11588;SDS011;5850;51.360;12.362;2022-10-31T00:58:40;11.77;;;6.90;;
11588;SDS011;5850;51.360;12.362;2022-10-31T01:01:09;13.43;;;7.13;;
11588;SDS011;5850;51.360;12.362;2022-10-31T01:03:38;9.10;;;6.20;;
11588;SDS011;5850;51.360;12.362;2022-10-31T01:06:07;9.77;;;6.27;;
11588;SDS011;5850;51.360;12.362;2022-10-31T01:08:39;10.13;;;6.73;;
11588;SDS011;5850;51.360;12.362;2022-10-31T01:11:25;11.33;;;7.07;;
11588;SDS011;5850;51.360;12.362;2022-10-31T01:13:53;11.63;;;6.63;;
11588;SDS011;5850;51.360;12.362;2022-10-31T01:16:23;7.97;;;6.20;;
11588;SDS011;5850;51.360;12.362;2022-10-31T01:18:53;9.63;;;6.57;;
11588;SDS011;5850;51.360;12.362;2022-10-31T01:21:23;10.80;;;7.17;;
11588;SDS011;5850;51.360;12.362;2022-10-31T01:23:54;13.53;;;7.23;;
11588;SDS011;5850;51.360;12.362;2022-10-31T01:26:24;16.27;;;7.70;;
11588;SDS011;5850;51.360;12.362;2022-10-31T01:28:59;9.77;;;6.93;;
11588;SDS011;5850;51.360;12.362;2022-10-31T01:31:31;9.67;;;6.57;;
11588;SDS011;5850;51.360;12.362;2022-10-31T01:34:02;12.37;;;7.30;;
11588;SDS011;5850;51.360;12.362;2022-10-31T01:36:35;8.33;;;6.00;;
11588;SDS011;5850;51.360;12.362;2022-10-31T01:39:06;10.07;;;7.00;;
11588;SDS011;5850;51.360;12.362;2022-10-31T01:41:38;9.43;;;7.00;;
11588;SDS011;5850;51.360;12.362;2022-10-31T01:46:44;10.73;;;7.00;;
11588;SDS011;5850;51.360;12.362;2022-10-31T01:49:26;8.63;;;6.67;;
11588;SDS011;5850;51.360;12.362;2022-10-31T01:52:24;10.70;;;6.30;;
11588;SDS011;5850;51.360;12.362;2022-10-31T01:55:02;7.93;;;6.53;;
11588;SDS011;5850;51.360;12.362;2022-10-31T01:57:40;11.17;;;6.70;;
11588;SDS011;5850;51.360;12.362;2022-10-31T02:00:13;13.17;;;6.87;;
11588;SDS011;5850;51.360;12.362;2022-10-31T02:02:41;12.13;;;7.17;;
11588;SDS011;5850;51.360;12.362;2022-10-31T02:05:12;10.10;;;6.97;;
11588;SDS011;5850;51.360;12.362;2022-10-31T02:07:49;12.57;;;6.63;;
11588;SDS011;5850;51.360;12.362;2022-10-31T02:10:23;10.73;;;7.03;;
11588;SDS011;5850;51.360;12.362;2022-10-31T02:12:52;8.13;;;6.30;;
11588;SDS011;5850;51.360;12.362;2022-10-31T02:15:23;11.90;;;6.50;;
11588;SDS011;5850;51.360;12.362;2022-10-31T02:17:51;8.37;;;6.23;;
11588;SDS011;5850;51.360;12.362;2022-10-31T02:20:21;9.07;;;6.53;;
11588;SDS011;5850;51.360;12.362;2022-10-31T02:23:14;10.17;;;7.00;;
11588;SDS011;5850;51.360;12.362;2022-10-31T02:32:00;10.23;;;7.17;;
11588;SDS011;5850;51.360;12.362;2022-10-31T02:34:42;9.53;;;6.50;;
11588;SDS011;5850;51.360;12.362;2022-10-31T02:40:17;11.73;;;6.90;;
11588;SDS011;5850;51.360;12.362;2022-10-31T02:43:02;9.63;;;5.87;;
11588;SDS011;5850;51.360;12.362;2022-10-31T02:45:58;10.03;;;7.13;;
11588;SDS011;5850;51.360;12.362;2022-10-31T02:48:36;8.90;;;6.27;;
11588;SDS011;5850;51.360;12.362;2022-10-31T02:51:07;9.03;;;6.60;;
11588;SDS011;5850;51.360;12.362;2022-10-31T02:53:37;11.70;;;6.10;;
11588;SDS011;5850;51.360;12.362;2022-10-31T02:56:13;8.13;;;6.90;;
11588;SDS011;5850;51.360;12.362;2022-10-31T02:59:05;8.50;;;6.73;;
11588;SDS011;5850;51.360;12.362;2022-10-31T03:04:22;12.83;;;7.27;;
11588;SDS011;5850;51.360;12.362;2022-10-31T03:15:45;9.93;;;6.57;;
11588;SDS011;5850;51.360;12.362;2022-10-31T03:18:29;7.83;;;6.80;;
11588;SDS011;5850;51.360;12.362;2022-10-31T03:21:10;9.07;;;6.80;;
11588;SDS011;5850;51.360;12.362;2022-10-31T03:23:52;9.57;;;6.90;;
11588;SDS011;5850;51.360;12.362;2022-10-31T03:26:23;11.53;;;6.83;;
11588;SDS011;5850;51.360;12.362;2022-10-31T03:28:57;7.53;;;6.77;;
11588;SDS011;5850;51.360;12.362;2022-10-31T03:31:36;11.40;;;6.90;;
11588;SDS011;5850;51.360;12.362;2022-10-31T03:34:16;9.73;;;6.87;;
11588;SDS011;5850;51.360;12.362;2022-10-31T03:36:47;10.13;;;6.43;;
11588;SDS011;5850;51.360;12.362;2022-10-31T03:39:20;10.90;;;6.63;;
11588;SDS011;5850;51.360;12.362;2022-10-31T03:41:57;9.93;;;6.80;;
11588;SDS011;5850;51.360;12.362;2022-10-31T03:44:33;14.27;;;7.23;;
11588;SDS011;5850;51.360;12.362;2022-10-31T03:47:02;10.53;;;7.03;;
11588;SDS011;5850;51.360;12.362;2022-10-31T03:49:31;13.87;;;7.70;;
11588;SDS011;5850;51.360;12.362;2022-10-31T03:57:23;12.20;;;6.53;;
11588;SDS011;5850;51.360;12.362;2022-10-31T04:00:06;10.40;;;6.57;;
11588;SDS011;5850;51.360;12.362;2022-10-31T04:02:41;9.37;;;7.20;;
11588;SDS011;5850;51.360;12.362;2022-10-31T04:05:26;9.97;;;6.37;;
11588;SDS011;5850;51.360;12.362;2022-10-31T04:07:55;10.33;;;6.77;;
11588;SDS011;5850;51.360;12.362;2022-10-31T04:10:26;8.97;;;7.00;;
11588;SDS011;5850;51.360;12.362;2022-10-31T04:13:01;8.43;;;6.63;;
11588;SDS011;5850;51.360;12.362;2022-10-31T04:15:36;11.60;;;6.53;;
11588;SDS011;5850;51.360;12.362;2022-10-31T04:18:06;8.33;;;6.27;;
11588;SDS011;5850;51.360;12.362;2022-10-31T04:20:39;14.03;;;7.40;;
11588;SDS011;5850;51.360;12.362;2022-10-31T04:23:13;10.37;;;6.53;;
11588;SDS011;5850;51.360;12.362;2022-10-31T04:25:48;9.87;;;6.73;;
11588;SDS011;5850;51.360;12.362;2022-10-31T04:28:17;8.00;;;6.50;;
11588;SDS011;5850;51.360;12.362;2022-10-31T04:30:46;10.20;;;6.03;;
11588;SDS011;5850;51.360;12.362;2022-10-31T04:33:14;9.00;;;6.50;;
11588;SDS011;5850;51.360;12.362;2022-10-31T04:35:43;8.87;;;7.13;;
11588;SDS011;5850;51.360;12.362;2022-10-31T04:38:11;11.43;;;6.37;;
11588;SDS011;5850;51.360;12.362;2022-10-31T04:40:39;11.90;;;6.57;;
11588;SDS011;5850;51.360;12.362;2022-10-31T04:43:08;16.07;;;8.60;;
11588;SDS011;5850;51.360;12.362;2022-10-31T04:45:37;8.97;;;7.10;;
11588;SDS011;5850;51.360;12.362;2022-10-31T04:48:05;11.77;;;6.77;;
11588;SDS011;5850;51.360;12.362;2022-10-31T04:50:33;12.73;;;7.13;;
11588;SDS011;5850;51.360;12.362;2022-10-31T04:53:02;8.23;;;6.63;;
11588;SDS011;5850;51.360;12.362;2022-10-31T04:55:30;8.93;;;6.50;;
11588;SDS011;5850;51.360;12.362;2022-10-31T04:57:59;8.40;;;6.33;;
11588;SDS011;5850;51.360;12.362;2022-10-31T05:00:27;9.70;;;7.20;;
11588;SDS011;5850;51.360;12.362;2022-10-31T05:02:56;9.40;;;6.87;;
11588;SDS011;5850;51.360;12.362;2022-10-31T05:05:27;10.97;;;6.83;;
11588;SDS011;5850;51.360;12.362;2022-10-31T05:07:58;8.97;;;6.63;;
11588;SDS011;5850;51.360;12.362;2022-10-31T05:10:27;11.63;;;6.90;;
11588;SDS011;5850;51.360;12.362;2022-10-31T05:12:58;11.83;;;7.00;;
11588;SDS011;5850;51.360;12.362;2022-10-31T05:15:29;11.63;;;6.10;;
11588;SDS011;5850;51.360;12.362;2022-10-31T05:17:57;7.37;;;6.50;;
11588;SDS011;5850;51.360;12.362;2022-10-31T05:20:27;8.43;;;6.50;;
11588;SDS011;5850;51.360;12.362;2022-10-31T05:22:57;8.73;;;6.63;;
11588;SDS011;5850;51.360;12.362;2022-10-31T05:25:27;10.97;;;6.60;;
11588;SDS011;5850;51.360;12.362;2022-10-31T05:27:56;9.67;;;6.70;;
11588;SDS011;5850;51.360;12.362;2022-10-31T05:30:27;8.70;;;6.80;;
11588;SDS011;5850;51.360;12.362;2022-10-31T05:32:57;10.17;;;7.27;;
11588;SDS011;5850;51.360;12.362;2022-10-31T05:35:27;12.97;;;8.00;;
11588;SDS011;5850;51.360;12.362;2022-10-31T05:37:58;8.47;;;6.67;;
11588;SDS011;5850;51.360;12.362;2022-10-31T05:40:27;9.40;;;7.00;;
11588;SDS011;5850;51.360;12.362;2022-10-31T05:42:56;11.73;;;7.50;;
11588;SDS011;5850;51.360;12.362;2022-10-31T05:45:25;9.30;;;7.00;;
11588;SDS011;5850;51.360;12.362;2022-10-31T05:47:55;10.10;;;6.60;;
11588;SDS011;5850;51.360;12.362;2022-10-31T05:50:27;7.40;;;6.60;;
11588;SDS011;5850;51.360;12.362;2022-10-31T05:52:58;8.13;;;6.30;;
11588;SDS011;5850;51.360;12.362;2022-10-31T05:55:31;8.17;;;6.27;;
11588;SDS011;5850;51.360;12.362;2022-10-31T05:58:00;10.00;;;7.43;;
11588;SDS011;5850;51.360;12.362;2022-10-31T06:00:29;8.70;;;6.40;;
11588;SDS011;5850;51.360;12.362;2022-10-31T06:03:01;11.70;;;6.97;;
11588;SDS011;5850;51.360;12.362;2022-10-31T06:05:32;10.80;;;7.23;;
11588;SDS011;5850;51.360;12.362;2022-10-31T06:08:00;8.30;;;7.27;;
11588;SDS011;5850;51.360;12.362;2022-10-31T06:10:29;10.50;;;7.60;;
11588;SDS011;5850;51.360;12.362;2022-10-31T06:12:57;12.47;;;7.53;;
11588;SDS011;5850;51.360;12.362;2022-10-31T06:15:25;10.50;;;7.00;;
11588;SDS011;5850;51.360;12.362;2022-10-31T06:18:04;11.80;;;7.40;;
11588;SDS011;5850;51.360;12.362;2022-10-31T06:20:33;9.73;;;7.13;;
11588;SDS011;5850;51.360;12.362;2022-10-31T06:23:01;10.10;;;6.50;;
11588;SDS011;5850;51.360;12.362;2022-10-31T06:25:30;8.57;;;6.93;;
11588;SDS011;5850;51.360;12.362;2022-10-31T06:28:00;12.83;;;6.90;;
11588;SDS011;5850;51.360;12.362;2022-10-31T06:30:28;9.17;;;6.80;;
11588;SDS011;5850;51.360;12.362;2022-10-31T06:33:01;10.03;;;6.70;;
11588;SDS011;5850;51.360;12.362;2022-10-31T06:35:33;10.17;;;6.87;;
11588;SDS011;5850;51.360;12.362;2022-10-31T06:38:02;10.20;;;6.70;;
11588;SDS011;5850;51.360;12.362;2022-10-31T06:40:31;10.17;;;7.03;;
11588;SDS011;5850;51.360;12.362;2022-10-31T06:42:59;10.67;;;7.30;;
11588;SDS011;5850;51.360;12.362;2022-10-31T06:45:28;11.57;;;6.73;;
11588;SDS011;5850;51.360;12.362;2022-10-31T06:47:56;10.03;;;7.30;;
11588;SDS011;5850;51.360;12.362;2022-10-31T06:50:45;11.60;;;7.60;;
11588;SDS011;5850;51.360;12.362;2022-10-31T06:53:13;8.30;;;6.80;;
11588;SDS011;5850;51.360;12.362;2022-10-31T06:55:42;9.33;;;6.43;;
11588;SDS011;5850;51.360;12.362;2022-10-31T06:58:10;10.50;;;7.50;;
11588;SDS011;5850;51.360;12.362;2022-10-31T07:00:38;8.27;;;6.60;;
11588;SDS011;5850;51.360;12.362;2022-10-31T07:03:10;11.97;;;7.40;;
11588;SDS011;5850;51.360;12.362;2022-10-31T07:05:40;7.80;;;6.33;;
11588;SDS011;5850;51.360;12.362;2022-10-31T07:08:12;8.57;;;6.40;;
11588;SDS011;5850;51.360;12.362;2022-10-31T07:10:41;12.27;;;6.30;;
11588;SDS011;5850;51.360;12.362;2022-10-31T07:13:13;8.23;;;6.17;;
11588;SDS011;5850;51.360;12.362;2022-10-31T07:15:42;8.00;;;6.47;;
11588;SDS011;5850;51.360;12.362;2022-10-31T07:18:11;7.67;;;6.43;;
11588;SDS011;5850;51.360;12.362;2022-10-31T07:20:39;6.93;;;6.13;;
11588;SDS011;5850;51.360;12.362;2022-10-31T07:23:11;8.07;;;6.97;;
11588;SDS011;5850;51.360;12.362;2022-10-31T07:25:39;12.40;;;6.77;;
11588;SDS011;5850;51.360;12.362;2022-10-31T07:28:08;9.00;;;7.13;;
11588;SDS011;5850;51.360;12.362;2022-10-31T07:30:37;10.33;;;6.70;;
11588;SDS011;5850;51.360;12.362;2022-10-31T07:33:06;9.13;;;6.73;;
11588;SDS011;5850;51.360;12.362;2022-10-31T07:35:34;8.83;;;7.07;;
11588;SDS011;5850;51.360;12.362;2022-10-31T07:38:09;10.03;;;7.10;;
11588;SDS011;5850;51.360;12.362;2022-10-31T07:40:39;10.20;;;7.73;;
11588;SDS011;5850;51.360;12.362;2022-10-31T07:43:12;10.90;;;6.87;;
11588;SDS011;5850;51.360;12.362;2022-10-31T07:45:40;12.23;;;7.67;;
11588;SDS011;5850;51.360;12.362;2022-10-31T07:48:08;8.90;;;6.63;;
11588;SDS011;5850;51.360;12.362;2022-10-31T07:50:37;7.70;;;6.17;;
11588;SDS011;5850;51.360;12.362;2022-10-31T07:53:08;10.37;;;6.80;;
11588;SDS011;5850;51.360;12.362;2022-10-31T07:55:38;10.53;;;7.20;;
11588;SDS011;5850;51.360;12.362;2022-10-31T07:58:08;9.83;;;6.70;;
11588;SDS011;5850;51.360;12.362;2022-10-31T08:00:43;7.63;;;6.80;;
11588;SDS011;5850;51.360;12.362;2022-10-31T08:03:14;10.13;;;7.53;;
11588;SDS011;5850;51.360;12.362;2022-10-31T08:05:44;9.47;;;6.77;;
11588;SDS011;5850;51.360;12.362;2022-10-31T08:08:14;10.00;;;6.77;;
11588;SDS011;5850;51.360;12.362;2022-10-31T08:10:43;7.90;;;6.47;;
11588;SDS011;5850;51.360;12.362;2022-10-31T08:13:13;11.23;;;7.10;;
11588;SDS011;5850;51.360;12.362;2022-10-31T08:15:41;10.57;;;7.60;;
11588;SDS011;5850;51.360;12.362;2022-10-31T08:18:13;8.77;;;7.40;;
11588;SDS011;5850;51.360;12.362;2022-10-31T08:20:42;15.33;;;10.03;;
11588;SDS011;5850;51.360;12.362;2022-10-31T08:23:11;9.73;;;8.70;;
11588;SDS011;5850;51.360;12.362;2022-10-31T08:25:40;15.03;;;8.90;;
11588;SDS011;5850;51.360;12.362;2022-10-31T08:28:09;12.57;;;7.43;;
11588;SDS011;5850;51.360;12.362;2022-10-31T08:30:38;10.90;;;7.50;;
11588;SDS011;5850;51.360;12.362;2022-10-31T08:35:44;12.80;;;9.70;;
11588;SDS011;5850;51.360;12.362;2022-10-31T08:38:13;10.90;;;9.00;;
11588;SDS011;5850;51.360;12.362;2022-10-31T08:40:42;10.47;;;8.10;;
11588;SDS011;5850;51.360;12.362;2022-10-31T08:43:11;11.37;;;8.23;;
11588;SDS011;5850;51.360;12.362;2022-10-31T08:45:42;8.83;;;7.47;;
11588;SDS011;5850;51.360;12.362;2022-10-31T08:48:12;12.03;;;7.93;;
11588;SDS011;5850;51.360;12.362;2022-10-31T08:50:43;12.77;;;7.47;;
11588;SDS011;5850;51.360;12.362;2022-10-31T08:53:13;10.87;;;7.73;;
11588;SDS011;5850;51.360;12.362;2022-10-31T08:55:46;15.50;;;8.50;;
11588;SDS011;5850;51.360;12.362;2022-10-31T08:58:16;13.37;;;9.03;;
11588;SDS011;5850;51.360;12.362;2022-10-31T09:00:47;13.50;;;9.23;;
11588;SDS011;5850;51.360;12.362;2022-10-31T09:03:23;12.33;;;8.73;;
11588;SDS011;5850;51.360;12.362;2022-10-31T09:05:55;13.33;;;8.67;;
11588;SDS011;5850;51.360;12.362;2022-10-31T09:08:26;13.90;;;9.67;;
11588;SDS011;5850;51.360;12.362;2022-10-31T09:10:58;15.20;;;9.33;;
11588;SDS011;5850;51.360;12.362;2022-10-31T09:13:27;13.90;;;9.47;;
11588;SDS011;5850;51.360;12.362;2022-10-31T09:15:56;16.53;;;10.20;;
11588;SDS011;5850;51.360;12.362;2022-10-31T09:18:25;21.67;;;12.77;;
11588;SDS011;5850;51.360;12.362;2022-10-31T09:20:56;15.27;;;10.67;;
11588;SDS011;5850;51.360;12.362;2022-10-31T09:23:26;19.23;;;11.20;;
11588;SDS011;5850;51.360;12.362;2022-10-31T09:25:55;16.57;;;10.00;;
11588;SDS011;5850;51.360;12.362;2022-10-31T09:28:26;19.67;;;10.77;;
11588;SDS011;5850;51.360;12.362;2022-10-31T09:30:54;17.00;;;9.97;;
11588;SDS011;5850;51.360;12.362;2022-10-31T09:33:23;20.30;;;10.47;;
11588;SDS011;5850;51.360;12.362;2022-10-31T09:35:51;22.33;;;11.90;;
11588;SDS011;5850;51.360;12.362;2022-10-31T09:38:20;18.17;;;11.07;;
11588;SDS011;5850;51.360;12.362;2022-10-31T09:41:06;16.63;;;10.83;;
11588;SDS011;5850;51.360;12.362;2022-10-31T09:49:49;28.93;;;13.23;;
11588;SDS011;5850;51.360;12.362;2022-10-31T09:52:38;32.70;;;16.53;;
11588;SDS011;5850;51.360;12.362;2022-10-31T09:57:50;52.37;;;26.93;;
11588;SDS011;5850;51.360;12.362;2022-10-31T10:00:19;52.90;;;27.33;;
11588;SDS011;5850;51.360;12.362;2022-10-31T10:03:24;50.07;;;27.57;;
11588;SDS011;5850;51.360;12.362;2022-10-31T10:06:09;50.43;;;27.90;;
11588;SDS011;5850;51.360;12.362;2022-10-31T10:09:07;45.27;;;25.43;;
11588;SDS011;5850;51.360;12.362;2022-10-31T10:11:44;47.77;;;27.43;;
11588;SDS011;5850;51.360;12.362;2022-10-31T10:14:47;45.13;;;25.80;;
11588;SDS011;5850;51.360;12.362;2022-10-31T10:26:25;50.47;;;26.03;;
11588;SDS011;5850;51.360;12.362;2022-10-31T10:28:58;43.20;;;23.93;;
11588;SDS011;5850;51.360;12.362;2022-10-31T10:31:39;47.33;;;26.70;;
11588;SDS011;5850;51.360;12.362;2022-10-31T10:34:16;42.93;;;24.17;;
11588;SDS011;5850;51.360;12.362;2022-10-31T10:37:03;38.40;;;23.23;;
11588;SDS011;5850;51.360;12.362;2022-10-31T10:40:00;42.23;;;24.47;;
11588;SDS011;5850;51.360;12.362;2022-10-31T10:42:56;48.30;;;24.80;;
11588;SDS011;5850;51.360;12.362;2022-10-31T10:45:50;47.27;;;24.60;;
11588;SDS011;5850;51.360;12.362;2022-10-31T10:49:09;45.50;;;25.13;;
11588;SDS011;5850;51.360;12.362;2022-10-31T10:51:46;40.27;;;23.33;;
11588;SDS011;5850;51.360;12.362;2022-10-31T10:55:13;45.03;;;25.90;;
11588;SDS011;5850;51.360;12.362;2022-10-31T10:57:58;58.60;;;31.17;;
11588;SDS011;5850;51.360;12.362;2022-10-31T11:00:34;42.27;;;25.53;;
11588;SDS011;5850;51.360;12.362;2022-10-31T11:03:09;45.17;;;25.53;;
11588;SDS011;5850;51.360;12.362;2022-10-31T11:05:51;42.40;;;25.23;;
11588;SDS011;5850;51.360;12.362;2022-10-31T11:11:03;49.43;;;26.73;;
11588;SDS011;5850;51.360;12.362;2022-10-31T11:13:57;42.60;;;24.23;;
11588;SDS011;5850;51.360;12.362;2022-10-31T11:16:41;44.30;;;24.57;;
11588;SDS011;5850;51.360;12.362;2022-10-31T11:19:19;45.93;;;24.83;;
11588;SDS011;5850;51.360;12.362;2022-10-31T11:21:51;47.50;;;25.40;;
11588;SDS011;5850;51.360;12.362;2022-10-31T11:24:21;40.30;;;23.90;;
11588;SDS011;5850;51.360;12.362;2022-10-31T11:27:02;42.87;;;25.07;;
11588;SDS011;5850;51.360;12.362;2022-10-31T11:29:44;41.57;;;23.43;;
11588;SDS011;5850;51.360;12.362;2022-10-31T11:32:23;38.90;;;23.33;;
11588;SDS011;5850;51.360;12.362;2022-10-31T11:34:54;44.90;;;24.87;;
11588;SDS011;5850;51.360;12.362;2022-10-31T11:37:27;43.30;;;23.10;;
11588;SDS011;5850;51.360;12.362;2022-10-31T11:40:02;39.60;;;22.60;;
11588;SDS011;5850;51.360;12.362;2022-10-31T11:42:40;44.93;;;24.77;;
11588;SDS011;5850;51.360;12.362;2022-10-31T11:45:17;48.97;;;28.03;;
11588;SDS011;5850;51.360;12.362;2022-10-31T11:48:17;49.93;;;26.80;;
11588;SDS011;5850;51.360;12.362;2022-10-31T11:50:53;49.47;;;29.67;;
11588;SDS011;5850;51.360;12.362;2022-10-31T11:53:28;40.63;;;25.83;;
11588;SDS011;5850;51.360;12.362;2022-10-31T11:56:10;45.70;;;25.70;;
11588;SDS011;5850;51.360;12.362;2022-10-31T11:58:41;41.07;;;24.70;;
11588;SDS011;5850;51.360;12.362;2022-10-31T12:01:24;47.50;;;25.57;;
11588;SDS011;5850;51.360;12.362;2022-10-31T12:03:59;48.37;;;26.90;;
11588;SDS011;5850;51.360;12.362;2022-10-31T12:06:40;44.43;;;25.50;;
11588;SDS011;5850;51.360;12.362;2022-10-31T12:09:19;51.53;;;26.00;;
11588;SDS011;5850;51.360;12.362;2022-10-31T12:20:42;43.63;;;24.27;;
11588;SDS011;5850;51.360;12.362;2022-10-31T12:45:55;42.30;;;22.40;;
11588;SDS011;5850;51.360;12.362;2022-10-31T12:49:09;45.57;;;22.40;;
11588;SDS011;5850;51.360;12.362;2022-10-31T13:02:44;37.87;;;21.70;;
11588;SDS011;5850;51.360;12.362;2022-10-31T13:05:45;45.30;;;23.53;;
11588;SDS011;5850;51.360;12.362;2022-10-31T13:08:20;42.50;;;23.83;;
11588;SDS011;5850;51.360;12.362;2022-10-31T13:11:06;39.63;;;21.73;;
11588;SDS011;5850;51.360;12.362;2022-10-31T13:13:53;44.17;;;24.07;;
11588;SDS011;5850;51.360;12.362;2022-10-31T13:16:34;37.60;;;23.13;;
11588;SDS011;5850;51.360;12.362;2022-10-31T13:19:09;41.47;;;22.70;;
11588;SDS011;5850;51.360;12.362;2022-10-31T13:24:25;33.27;;;20.03;;
11588;SDS011;5850;51.360;12.362;2022-10-31T13:27:20;37.47;;;20.93;;
11588;SDS011;5850;51.360;12.362;2022-10-31T13:30:15;39.23;;;22.47;;
11588;SDS011;5850;51.360;12.362;2022-10-31T13:32:48;44.27;;;23.57;;
11588;SDS011;5850;51.360;12.362;2022-10-31T13:35:27;42.23;;;23.37;;
11588;SDS011;5850;51.360;12.362;2022-10-31T13:46:39;44.27;;;25.17;;
11588;SDS011;5850;51.360;12.362;2022-10-31T13:54:39;41.97;;;24.07;;
11588;SDS011;5850;51.360;12.362;2022-10-31T14:00:00;43.30;;;23.33;;
11588;SDS011;5850;51.360;12.362;2022-10-31T14:02:55;40.20;;;21.53;;
11588;SDS011;5850;51.360;12.362;2022-10-31T14:07:56;42.47;;;21.60;;
11588;SDS011;5850;51.360;12.362;2022-10-31T14:10:35;36.53;;;20.13;;
11588;SDS011;5850;51.360;12.362;2022-10-31T14:13:29;33.97;;;20.17;;
11588;SDS011;5850;51.360;12.362;2022-10-31T14:16:04;31.13;;;18.67;;
11588;SDS011;5850;51.360;12.362;2022-10-31T14:18:50;28.80;;;17.97;;
11588;SDS011;5850;51.360;12.362;2022-10-31T14:21:37;26.77;;;16.30;;
11588;SDS011;5850;51.360;12.362;2022-10-31T14:24:13;31.23;;;17.93;;
11588;SDS011;5850;51.360;12.362;2022-10-31T14:26:54;35.47;;;17.93;;
11588;SDS011;5850;51.360;12.362;2022-10-31T14:29:28;28.57;;;17.47;;
11588;SDS011;5850;51.360;12.362;2022-10-31T14:32:00;28.33;;;16.70;;
11588;SDS011;5850;51.360;12.362;2022-10-31T14:34:57;27.83;;;16.90;;
11588;SDS011;5850;51.360;12.362;2022-10-31T14:49:22;43.70;;;26.23;;
11588;SDS011;5850;51.360;12.362;2022-10-31T14:52:07;40.33;;;24.77;;
11588;SDS011;5850;51.360;12.362;2022-10-31T14:54:37;38.43;;;23.97;;
11588;SDS011;5850;51.360;12.362;2022-10-31T14:57:19;42.87;;;25.20;;
11588;SDS011;5850;51.360;12.362;2022-10-31T14:59:55;50.13;;;26.90;;
11588;SDS011;5850;51.360;12.362;2022-10-31T15:02:36;45.13;;;27.47;;
11588;SDS011;5850;51.360;12.362;2022-10-31T15:05:28;48.20;;;27.03;;
11588;SDS011;5850;51.360;12.362;2022-10-31T15:07:57;42.60;;;26.60;;
11588;SDS011;5850;51.360;12.362;2022-10-31T15:10:33;40.70;;;26.03;;
11588;SDS011;5850;51.360;12.362;2022-10-31T15:13:09;46.23;;;26.87;;
11588;SDS011;5850;51.360;12.362;2022-10-31T15:15:49;47.93;;;26.67;;
11588;SDS011;5850;51.360;12.362;2022-10-31T15:18:23;44.07;;;26.33;;
11588;SDS011;5850;51.360;12.362;2022-10-31T15:20:55;39.70;;;24.97;;
11588;SDS011;5850;51.360;12.362;2022-10-31T15:23:30;44.37;;;28.80;;
11588;SDS011;5850;51.360;12.362;2022-10-31T15:25:59;41.33;;;26.13;;
11588;SDS011;5850;51.360;12.362;2022-10-31T15:28:28;44.50;;;25.90;;
11588;SDS011;5850;51.360;12.362;2022-10-31T15:30:58;39.63;;;26.63;;
11588;SDS011;5850;51.360;12.362;2022-10-31T15:33:29;44.83;;;26.37;;
11588;SDS011;5850;51.360;12.362;2022-10-31T15:36:05;41.50;;;25.43;;
11588;SDS011;5850;51.360;12.362;2022-10-31T15:38:49;40.77;;;25.93;;
11588;SDS011;5850;51.360;12.362;2022-10-31T15:41:42;44.40;;;24.40;;
11588;SDS011;5850;51.360;12.362;2022-10-31T15:44:36;48.23;;;26.93;;
11588;SDS011;5850;51.360;12.362;2022-10-31T15:47:16;45.30;;;25.67;;
11588;SDS011;5850;51.360;12.362;2022-10-31T15:49:51;42.33;;;25.70;;
11588;SDS011;5850;51.360;12.362;2022-10-31T15:52:32;41.03;;;25.97;;
11588;SDS011;5850;51.360;12.362;2022-10-31T15:57:50;47.53;;;27.50;;
11588;SDS011;5850;51.360;12.362;2022-10-31T16:00:24;41.77;;;25.57;;
11588;SDS011;5850;51.360;12.362;2022-10-31T16:08:23;44.70;;;26.13;;
11588;SDS011;5850;51.360;12.362;2022-10-31T16:10:59;48.00;;;28.23;;
11588;SDS011;5850;51.360;12.362;2022-10-31T16:13:35;46.17;;;26.73;;
11588;SDS011;5850;51.360;12.362;2022-10-31T16:16:14;57.13;;;31.40;;
11588;SDS011;5850;51.360;12.362;2022-10-31T16:19:02;55.20;;;31.53;;
11588;SDS011;5850;51.360;12.362;2022-10-31T16:21:33;53.80;;;30.43;;
11588;SDS011;5850;51.360;12.362;2022-10-31T16:24:05;53.87;;;29.47;;
11588;SDS011;5850;51.360;12.362;2022-10-31T16:26:48;51.10;;;28.90;;
11588;SDS011;5850;51.360;12.362;2022-10-31T16:29:26;46.70;;;29.80;;
11588;SDS011;5850;51.360;12.362;2022-10-31T16:32:34;53.27;;;29.17;;
11588;SDS011;5850;51.360;12.362;2022-10-31T16:35:35;50.03;;;27.83;;
11588;SDS011;5850;51.360;12.362;2022-10-31T16:38:07;49.50;;;28.57;;
11588;SDS011;5850;51.360;12.362;2022-10-31T16:40:37;49.40;;;30.20;;
11588;SDS011;5850;51.360;12.362;2022-10-31T16:43:07;59.77;;;31.13;;
11588;SDS011;5850;51.360;12.362;2022-10-31T16:45:43;49.03;;;28.13;;
11588;SDS011;5850;51.360;12.362;2022-10-31T16:48:19;46.07;;;28.30;;
11588;SDS011;5850;51.360;12.362;2022-10-31T16:50:49;49.37;;;29.37;;
11588;SDS011;5850;51.360;12.362;2022-10-31T16:53:18;51.87;;;30.30;;
11588;SDS011;5850;51.360;12.362;2022-10-31T16:58:32;45.53;;;29.40;;
11588;SDS011;5850;51.360;12.362;2022-10-31T17:01:03;47.90;;;28.53;;
11588;SDS011;5850;51.360;12.362;2022-10-31T17:03:35;55.33;;;31.20;;
11588;SDS011;5850;51.360;12.362;2022-10-31T17:06:03;46.50;;;29.07;;
11588;SDS011;5850;51.360;12.362;2022-10-31T17:08:31;40.53;;;25.10;;
11588;SDS011;5850;51.360;12.362;2022-10-31T17:11:03;44.67;;;29.30;;
11588;SDS011;5850;51.360;12.362;2022-10-31T17:13:42;50.50;;;30.83;;
11588;SDS011;5850;51.360;12.362;2022-10-31T17:16:11;49.77;;;30.60;;
11588;SDS011;5850;51.360;12.362;2022-10-31T17:18:41;48.27;;;30.33;;
11588;SDS011;5850;51.360;12.362;2022-10-31T17:21:18;52.47;;;30.33;;
11588;SDS011;5850;51.360;12.362;2022-10-31T17:23:49;49.90;;;29.57;;
11588;SDS011;5850;51.360;12.362;2022-10-31T17:26:18;49.23;;;31.17;;
11588;SDS011;5850;51.360;12.362;2022-10-31T17:28:47;45.07;;;28.17;;
11588;SDS011;5850;51.360;12.362;2022-10-31T17:31:22;44.13;;;27.73;;
11588;SDS011;5850;51.360;12.362;2022-10-31T17:33:58;46.50;;;27.97;;